sensor_id;sensor_type;location;lat;lon;timestamp;P1;durP1;ratioP1;P2;durP2;ratioP2
37843;SDS011;63793;57.632;18.292;2023-03-13T00:02:19;4.68;;;1.33;;
37843;SDS011;63793;57.632;18.292;2023-03-13T00:04:46;15.98;;;1.90;;
37843;SDS011;63793;57.632;18.292;2023-03-13T00:07:12;5.13;;;1.35;;
37843;SDS011;63793;57.632;18.292;2023-03-13T00:09:39;2.92;;;1.40;;
37843;SDS011;63793;57.632;18.292;2023-03-13T00:12:06;7.10;;;1.00;;
37843;SDS011;63793;57.632;18.292;2023-03-13T00:14:33;6.57;;;2.28;;
37843;SDS011;63793;57.632;18.292;2023-03-13T00:17:00;4.97;;;1.55;;
37843;SDS011;63793;57.632;18.292;2023-03-13T00:19:28;1.95;;;1.10;;
37843;SDS011;63793;57.632;18.292;2023-03-13T00:21:55;5.47;;;0.85;;
37843;SDS011;63793;57.632;18.292;2023-03-13T00:24:22;3.88;;;1.10;;
37843;SDS011;63793;57.632;18.292;2023-03-13T00:26:48;5.55;;;1.60;;
37843;SDS011;63793;57.632;18.292;2023-03-13T00:29:15;3.88;;;1.50;;
37843;SDS011;63793;57.632;18.292;2023-03-13T00:31:42;2.08;;;0.77;;
37843;SDS011;63793;57.632;18.292;2023-03-13T00:34:09;3.92;;;1.13;;
37843;SDS011;63793;57.632;18.292;2023-03-13T00:36:36;5.10;;;1.00;;
37843;SDS011;63793;57.632;18.292;2023-03-13T00:39:03;2.00;;;0.98;;
37843;SDS011;63793;57.632;18.292;2023-03-13T00:41:33;5.47;;;1.35;;
37843;SDS011;63793;57.632;18.292;2023-03-13T00:46:30;3.00;;;0.88;;
37843;SDS011;63793;57.632;18.292;2023-03-13T00:48:57;4.93;;;1.33;;
37843;SDS011;63793;57.632;18.292;2023-03-13T00:51:24;0.75;;;0.57;;
37843;SDS011;63793;57.632;18.292;2023-03-13T00:53:53;1.67;;;0.93;;
37843;SDS011;63793;57.632;18.292;2023-03-13T00:56:21;3.30;;;0.70;;
37843;SDS011;63793;57.632;18.292;2023-03-13T00:58:48;2.53;;;0.80;;
37843;SDS011;63793;57.632;18.292;2023-03-13T01:03:43;3.10;;;1.00;;
37843;SDS011;63793;57.632;18.292;2023-03-13T01:06:14;4.07;;;1.13;;
37843;SDS011;63793;57.632;18.292;2023-03-13T01:08:42;3.15;;;1.10;;
37843;SDS011;63793;57.632;18.292;2023-03-13T01:11:11;3.65;;;1.15;;
37843;SDS011;63793;57.632;18.292;2023-03-13T01:13:39;4.93;;;0.80;;
37843;SDS011;63793;57.632;18.292;2023-03-13T01:16:08;2.20;;;1.08;;
37843;SDS011;63793;57.632;18.292;2023-03-13T01:18:38;2.80;;;1.50;;
37843;SDS011;63793;57.632;18.292;2023-03-13T01:21:08;3.08;;;0.77;;
37843;SDS011;63793;57.632;18.292;2023-03-13T01:23:36;3.88;;;0.73;;
37843;SDS011;63793;57.632;18.292;2023-03-13T01:26:05;1.25;;;0.52;;
37843;SDS011;63793;57.632;18.292;2023-03-13T01:28:33;1.25;;;0.60;;
37843;SDS011;63793;57.632;18.292;2023-03-13T01:31:09;3.30;;;1.80;;
37843;SDS011;63793;57.632;18.292;2023-03-13T01:33:40;2.20;;;0.70;;
37843;SDS011;63793;57.632;18.292;2023-03-13T01:36:07;1.90;;;0.60;;
37843;SDS011;63793;57.632;18.292;2023-03-13T01:38:35;4.15;;;0.98;;
37843;SDS011;63793;57.632;18.292;2023-03-13T01:41:03;1.02;;;0.70;;
37843;SDS011;63793;57.632;18.292;2023-03-13T01:43:32;8.10;;;1.10;;
37843;SDS011;63793;57.632;18.292;2023-03-13T01:48:41;3.40;;;0.60;;
37843;SDS011;63793;57.632;18.292;2023-03-13T01:51:29;0.38;;;0.38;;
37843;SDS011;63793;57.632;18.292;2023-03-13T01:56:44;1.88;;;0.52;;
37843;SDS011;63793;57.632;18.292;2023-03-13T01:59:13;0.88;;;0.30;;
37843;SDS011;63793;57.632;18.292;2023-03-13T02:01:45;2.15;;;0.60;;
37843;SDS011;63793;57.632;18.292;2023-03-13T02:04:14;2.47;;;0.57;;
37843;SDS011;63793;57.632;18.292;2023-03-13T02:09:13;2.30;;;0.70;;
37843;SDS011;63793;57.632;18.292;2023-03-13T02:11:47;1.23;;;0.55;;
37843;SDS011;63793;57.632;18.292;2023-03-13T02:14:15;1.98;;;0.80;;
37843;SDS011;63793;57.632;18.292;2023-03-13T02:16:47;4.95;;;0.90;;
37843;SDS011;63793;57.632;18.292;2023-03-13T02:19:28;0.38;;;0.30;;
37843;SDS011;63793;57.632;18.292;2023-03-13T02:27:53;5.55;;;0.73;;
37843;SDS011;63793;57.632;18.292;2023-03-13T02:30:53;0.50;;;0.40;;
37843;SDS011;63793;57.632;18.292;2023-03-13T02:35:51;2.00;;;0.60;;
37843;SDS011;63793;57.632;18.292;2023-03-13T02:38:20;1.92;;;0.77;;
37843;SDS011;63793;57.632;18.292;2023-03-13T02:40:53;2.55;;;0.80;;
37843;SDS011;63793;57.632;18.292;2023-03-13T02:43:23;2.30;;;1.20;;
37843;SDS011;63793;57.632;18.292;2023-03-13T02:48:29;2.63;;;1.42;;
37843;SDS011;63793;57.632;18.292;2023-03-13T02:50:59;2.38;;;1.67;;
37843;SDS011;63793;57.632;18.292;2023-03-13T02:53:28;1.40;;;0.70;;
37843;SDS011;63793;57.632;18.292;2023-03-13T02:55:56;4.50;;;0.70;;
37843;SDS011;63793;57.632;18.292;2023-03-13T02:58:24;3.63;;;0.95;;
37843;SDS011;63793;57.632;18.292;2023-03-13T03:00:51;2.00;;;0.80;;
37843;SDS011;63793;57.632;18.292;2023-03-13T03:03:19;2.38;;;0.80;;
37843;SDS011;63793;57.632;18.292;2023-03-13T03:05:46;1.77;;;0.82;;
37843;SDS011;63793;57.632;18.292;2023-03-13T03:08:13;3.95;;;0.80;;
37843;SDS011;63793;57.632;18.292;2023-03-13T03:10:39;3.35;;;0.88;;
37843;SDS011;63793;57.632;18.292;2023-03-13T03:13:07;3.40;;;2.95;;
37843;SDS011;63793;57.632;18.292;2023-03-13T03:15:33;3.10;;;0.88;;
37843;SDS011;63793;57.632;18.292;2023-03-13T03:18:01;1.08;;;0.80;;
37843;SDS011;63793;57.632;18.292;2023-03-13T03:20:28;3.60;;;0.70;;
37843;SDS011;63793;57.632;18.292;2023-03-13T03:22:55;1.95;;;0.80;;
37843;SDS011;63793;57.632;18.292;2023-03-13T03:25:22;3.35;;;0.88;;
37843;SDS011;63793;57.632;18.292;2023-03-13T03:27:49;2.55;;;0.77;;
37843;SDS011;63793;57.632;18.292;2023-03-13T03:30:16;2.58;;;0.90;;
37843;SDS011;63793;57.632;18.292;2023-03-13T03:32:43;2.55;;;1.17;;
37843;SDS011;63793;57.632;18.292;2023-03-13T03:35:10;5.25;;;1.50;;
37843;SDS011;63793;57.632;18.292;2023-03-13T03:37:37;1.88;;;1.02;;
37843;SDS011;63793;57.632;18.292;2023-03-13T03:40:04;6.50;;;2.28;;
37843;SDS011;63793;57.632;18.292;2023-03-13T03:42:32;5.68;;;1.33;;
37843;SDS011;63793;57.632;18.292;2023-03-13T03:44:59;4.18;;;1.85;;
37843;SDS011;63793;57.632;18.292;2023-03-13T03:47:26;2.92;;;1.40;;
37843;SDS011;63793;57.632;18.292;2023-03-13T03:49:54;3.28;;;1.85;;
37843;SDS011;63793;57.632;18.292;2023-03-13T03:52:21;5.13;;;1.23;;
37843;SDS011;63793;57.632;18.292;2023-03-13T03:54:48;4.88;;;1.60;;
37843;SDS011;63793;57.632;18.292;2023-03-13T03:57:16;3.47;;;2.45;;
37843;SDS011;63793;57.632;18.292;2023-03-13T03:59:44;2.92;;;2.20;;
37843;SDS011;63793;57.632;18.292;2023-03-13T04:02:11;2.83;;;1.90;;
37843;SDS011;63793;57.632;18.292;2023-03-13T04:04:39;6.95;;;1.98;;
37843;SDS011;63793;57.632;18.292;2023-03-13T04:07:16;2.78;;;1.50;;
37843;SDS011;63793;57.632;18.292;2023-03-13T04:09:43;5.15;;;1.60;;
37843;SDS011;63793;57.632;18.292;2023-03-13T04:12:18;5.18;;;1.83;;
37843;SDS011;63793;57.632;18.292;2023-03-13T04:14:46;5.57;;;1.88;;
37843;SDS011;63793;57.632;18.292;2023-03-13T04:17:14;5.32;;;2.50;;
37843;SDS011;63793;57.632;18.292;2023-03-13T04:19:42;5.55;;;1.60;;
37843;SDS011;63793;57.632;18.292;2023-03-13T04:22:09;3.58;;;1.80;;
37843;SDS011;63793;57.632;18.292;2023-03-13T04:24:41;5.55;;;1.70;;
37843;SDS011;63793;57.632;18.292;2023-03-13T04:27:08;2.03;;;1.30;;
37843;SDS011;63793;57.632;18.292;2023-03-13T04:29:35;2.80;;;1.17;;
37843;SDS011;63793;57.632;18.292;2023-03-13T04:32:18;4.60;;;2.15;;
37843;SDS011;63793;57.632;18.292;2023-03-13T04:35:04;3.65;;;1.80;;
37843;SDS011;63793;57.632;18.292;2023-03-13T04:37:46;3.22;;;1.73;;
37843;SDS011;63793;57.632;18.292;2023-03-13T04:40:49;3.42;;;1.40;;
37843;SDS011;63793;57.632;18.292;2023-03-13T04:43:45;6.15;;;3.13;;
37843;SDS011;63793;57.632;18.292;2023-03-13T04:46:38;2.60;;;1.83;;
37843;SDS011;63793;57.632;18.292;2023-03-13T04:49:23;4.53;;;1.73;;
37843;SDS011;63793;57.632;18.292;2023-03-13T04:52:05;4.00;;;2.30;;
37843;SDS011;63793;57.632;18.292;2023-03-13T04:54:50;3.47;;;1.80;;
37843;SDS011;63793;57.632;18.292;2023-03-13T04:57:37;5.22;;;1.70;;
37843;SDS011;63793;57.632;18.292;2023-03-13T05:00:43;3.55;;;1.75;;
37843;SDS011;63793;57.632;18.292;2023-03-13T05:03:39;2.88;;;1.75;;
37843;SDS011;63793;57.632;18.292;2023-03-13T05:06:13;4.38;;;1.60;;
37843;SDS011;63793;57.632;18.292;2023-03-13T05:08:40;5.85;;;1.85;;
37843;SDS011;63793;57.632;18.292;2023-03-13T05:11:31;6.22;;;1.73;;
37843;SDS011;63793;57.632;18.292;2023-03-13T05:14:33;8.35;;;2.25;;
37843;SDS011;63793;57.632;18.292;2023-03-13T05:17:28;4.88;;;2.05;;
37843;SDS011;63793;57.632;18.292;2023-03-13T05:20:16;12.77;;;2.40;;
37843;SDS011;63793;57.632;18.292;2023-03-13T05:22:49;7.47;;;2.30;;
37843;SDS011;63793;57.632;18.292;2023-03-13T05:25:30;7.35;;;2.08;;
37843;SDS011;63793;57.632;18.292;2023-03-13T05:28:13;11.35;;;2.45;;
37843;SDS011;63793;57.632;18.292;2023-03-13T05:30:59;6.55;;;2.17;;
37843;SDS011;63793;57.632;18.292;2023-03-13T05:33:39;8.00;;;2.70;;
37843;SDS011;63793;57.632;18.292;2023-03-13T05:36:24;8.55;;;1.77;;
37843;SDS011;63793;57.632;18.292;2023-03-13T05:39:09;5.90;;;1.85;;
37843;SDS011;63793;57.632;18.292;2023-03-13T05:41:45;9.63;;;2.75;;
37843;SDS011;63793;57.632;18.292;2023-03-13T05:44:24;4.60;;;1.83;;
37843;SDS011;63793;57.632;18.292;2023-03-13T05:46:54;6.05;;;1.38;;
37843;SDS011;63793;57.632;18.292;2023-03-13T05:49:35;3.70;;;2.10;;
37843;SDS011;63793;57.632;18.292;2023-03-13T05:52:21;6.88;;;2.00;;
37843;SDS011;63793;57.632;18.292;2023-03-13T05:55:14;5.30;;;1.48;;
37843;SDS011;63793;57.632;18.292;2023-03-13T05:58:00;4.88;;;2.00;;
37843;SDS011;63793;57.632;18.292;2023-03-13T06:00:50;7.78;;;2.67;;
37843;SDS011;63793;57.632;18.292;2023-03-13T06:03:36;9.20;;;2.15;;
37843;SDS011;63793;57.632;18.292;2023-03-13T06:06:03;8.43;;;2.75;;
37843;SDS011;63793;57.632;18.292;2023-03-13T06:08:51;6.93;;;2.70;;
37843;SDS011;63793;57.632;18.292;2023-03-13T06:11:20;6.35;;;2.85;;
37843;SDS011;63793;57.632;18.292;2023-03-13T06:13:47;4.85;;;1.92;;
37843;SDS011;63793;57.632;18.292;2023-03-13T06:16:23;4.28;;;1.75;;
37843;SDS011;63793;57.632;18.292;2023-03-13T06:18:55;16.95;;;3.55;;
37843;SDS011;63793;57.632;18.292;2023-03-13T06:21:22;7.72;;;3.03;;
37843;SDS011;63793;57.632;18.292;2023-03-13T06:23:49;11.00;;;3.58;;
37843;SDS011;63793;57.632;18.292;2023-03-13T06:26:16;8.05;;;2.60;;
37843;SDS011;63793;57.632;18.292;2023-03-13T06:28:43;9.30;;;3.80;;
37843;SDS011;63793;57.632;18.292;2023-03-13T06:31:10;7.75;;;5.30;;
37843;SDS011;63793;57.632;18.292;2023-03-13T06:33:37;20.00;;;2.65;;
37843;SDS011;63793;57.632;18.292;2023-03-13T06:36:04;5.65;;;2.83;;
37843;SDS011;63793;57.632;18.292;2023-03-13T06:38:31;9.95;;;3.63;;
37843;SDS011;63793;57.632;18.292;2023-03-13T06:40:58;8.50;;;2.40;;
37843;SDS011;63793;57.632;18.292;2023-03-13T06:43:25;7.28;;;2.95;;
37843;SDS011;63793;57.632;18.292;2023-03-13T06:45:53;11.23;;;3.00;;
37843;SDS011;63793;57.632;18.292;2023-03-13T06:48:19;11.90;;;3.58;;
37843;SDS011;63793;57.632;18.292;2023-03-13T06:50:48;8.68;;;4.18;;
37843;SDS011;63793;57.632;18.292;2023-03-13T06:53:16;5.63;;;2.88;;
37843;SDS011;63793;57.632;18.292;2023-03-13T06:55:44;7.45;;;3.33;;
37843;SDS011;63793;57.632;18.292;2023-03-13T06:58:11;8.35;;;3.15;;
37843;SDS011;63793;57.632;18.292;2023-03-13T07:00:56;8.13;;;3.17;;
37843;SDS011;63793;57.632;18.292;2023-03-13T07:03:23;4.22;;;2.80;;
37843;SDS011;63793;57.632;18.292;2023-03-13T07:05:56;8.45;;;3.55;;
37843;SDS011;63793;57.632;18.292;2023-03-13T07:08:24;11.73;;;4.25;;
37843;SDS011;63793;57.632;18.292;2023-03-13T07:10:51;10.02;;;4.82;;
37843;SDS011;63793;57.632;18.292;2023-03-13T07:13:19;8.10;;;3.97;;
37843;SDS011;63793;57.632;18.292;2023-03-13T07:15:47;6.47;;;3.85;;
37843;SDS011;63793;57.632;18.292;2023-03-13T07:18:14;5.97;;;3.85;;
37843;SDS011;63793;57.632;18.292;2023-03-13T07:20:41;6.97;;;4.43;;
37843;SDS011;63793;57.632;18.292;2023-03-13T07:23:08;6.20;;;5.22;;
37843;SDS011;63793;57.632;18.292;2023-03-13T07:25:35;6.13;;;4.45;;
37843;SDS011;63793;57.632;18.292;2023-03-13T07:28:02;6.80;;;4.97;;
37843;SDS011;63793;57.632;18.292;2023-03-13T07:30:29;9.98;;;5.22;;
37843;SDS011;63793;57.632;18.292;2023-03-13T07:32:56;9.38;;;6.03;;
37843;SDS011;63793;57.632;18.292;2023-03-13T07:35:23;9.18;;;6.15;;
37843;SDS011;63793;57.632;18.292;2023-03-13T07:37:51;14.25;;;7.38;;
37843;SDS011;63793;57.632;18.292;2023-03-13T07:40:17;10.52;;;5.07;;
37843;SDS011;63793;57.632;18.292;2023-03-13T07:42:44;9.63;;;6.00;;
37843;SDS011;63793;57.632;18.292;2023-03-13T07:45:11;11.43;;;5.25;;
37843;SDS011;63793;57.632;18.292;2023-03-13T07:47:38;9.05;;;5.13;;
37843;SDS011;63793;57.632;18.292;2023-03-13T07:50:05;12.57;;;6.13;;
37843;SDS011;63793;57.632;18.292;2023-03-13T07:52:33;9.38;;;6.13;;
37843;SDS011;63793;57.632;18.292;2023-03-13T07:55:00;9.48;;;5.20;;
37843;SDS011;63793;57.632;18.292;2023-03-13T07:57:27;8.02;;;4.80;;
37843;SDS011;63793;57.632;18.292;2023-03-13T07:59:54;8.23;;;5.25;;
37843;SDS011;63793;57.632;18.292;2023-03-13T08:02:21;8.45;;;7.10;;
37843;SDS011;63793;57.632;18.292;2023-03-13T08:04:50;10.27;;;4.80;;
37843;SDS011;63793;57.632;18.292;2023-03-13T08:07:18;9.70;;;6.35;;
37843;SDS011;63793;57.632;18.292;2023-03-13T08:09:45;8.95;;;5.13;;
37843;SDS011;63793;57.632;18.292;2023-03-13T08:12:12;6.78;;;5.25;;
37843;SDS011;63793;57.632;18.292;2023-03-13T08:14:38;10.27;;;5.85;;
37843;SDS011;63793;57.632;18.292;2023-03-13T08:17:05;8.65;;;5.57;;
37843;SDS011;63793;57.632;18.292;2023-03-13T08:19:32;9.82;;;5.25;;
37843;SDS011;63793;57.632;18.292;2023-03-13T08:21:59;14.93;;;6.93;;
37843;SDS011;63793;57.632;18.292;2023-03-13T08:24:26;8.15;;;6.57;;
37843;SDS011;63793;57.632;18.292;2023-03-13T08:26:53;10.88;;;7.13;;
37843;SDS011;63793;57.632;18.292;2023-03-13T08:29:19;13.10;;;8.07;;
37843;SDS011;63793;57.632;18.292;2023-03-13T08:31:47;7.95;;;7.13;;
37843;SDS011;63793;57.632;18.292;2023-03-13T08:34:16;9.50;;;6.45;;
37843;SDS011;63793;57.632;18.292;2023-03-13T08:36:44;7.85;;;5.22;;
37843;SDS011;63793;57.632;18.292;2023-03-13T08:39:12;14.30;;;6.63;;
37843;SDS011;63793;57.632;18.292;2023-03-13T08:41:40;9.80;;;5.43;;
37843;SDS011;63793;57.632;18.292;2023-03-13T08:44:09;10.80;;;5.80;;
37843;SDS011;63793;57.632;18.292;2023-03-13T08:46:38;9.27;;;6.20;;
37843;SDS011;63793;57.632;18.292;2023-03-13T08:49:05;10.15;;;6.28;;
37843;SDS011;63793;57.632;18.292;2023-03-13T08:51:33;8.95;;;5.72;;
37843;SDS011;63793;57.632;18.292;2023-03-13T08:54:01;9.05;;;5.57;;
37843;SDS011;63793;57.632;18.292;2023-03-13T08:56:29;7.85;;;5.57;;
37843;SDS011;63793;57.632;18.292;2023-03-13T08:58:58;6.65;;;4.97;;
37843;SDS011;63793;57.632;18.292;2023-03-13T09:01:30;9.18;;;7.03;;
37843;SDS011;63793;57.632;18.292;2023-03-13T09:03:58;9.45;;;6.30;;
37843;SDS011;63793;57.632;18.292;2023-03-13T09:06:30;10.52;;;6.20;;
37843;SDS011;63793;57.632;18.292;2023-03-13T09:08:57;10.77;;;6.22;;
37843;SDS011;63793;57.632;18.292;2023-03-13T09:11:24;8.82;;;7.70;;
37843;SDS011;63793;57.632;18.292;2023-03-13T09:13:54;10.10;;;6.53;;
37843;SDS011;63793;57.632;18.292;2023-03-13T09:16:22;9.70;;;7.18;;
37843;SDS011;63793;57.632;18.292;2023-03-13T09:18:50;8.00;;;6.45;;
37843;SDS011;63793;57.632;18.292;2023-03-13T09:21:20;9.93;;;6.88;;
37843;SDS011;63793;57.632;18.292;2023-03-13T09:23:48;9.63;;;6.20;;
37843;SDS011;63793;57.632;18.292;2023-03-13T09:26:16;8.05;;;5.88;;
37843;SDS011;63793;57.632;18.292;2023-03-13T09:28:47;8.30;;;5.95;;
37843;SDS011;63793;57.632;18.292;2023-03-13T09:31:19;7.43;;;6.40;;
37843;SDS011;63793;57.632;18.292;2023-03-13T09:33:50;8.90;;;5.78;;
37843;SDS011;63793;57.632;18.292;2023-03-13T09:36:18;6.88;;;6.18;;
37843;SDS011;63793;57.632;18.292;2023-03-13T09:38:51;6.75;;;5.95;;
37843;SDS011;63793;57.632;18.292;2023-03-13T09:44:01;8.05;;;6.32;;
37843;SDS011;63793;57.632;18.292;2023-03-13T09:49:24;7.93;;;6.65;;
37843;SDS011;63793;57.632;18.292;2023-03-13T09:52:16;8.90;;;6.95;;
37843;SDS011;63793;57.632;18.292;2023-03-13T09:54:45;7.53;;;5.80;;
37843;SDS011;63793;57.632;18.292;2023-03-13T09:57:34;5.53;;;5.00;;
37843;SDS011;63793;57.632;18.292;2023-03-13T10:00:24;6.05;;;5.05;;
37843;SDS011;63793;57.632;18.292;2023-03-13T10:02:58;7.65;;;5.70;;
37843;SDS011;63793;57.632;18.292;2023-03-13T10:05:30;7.57;;;6.65;;
37843;SDS011;63793;57.632;18.292;2023-03-13T10:08:10;5.72;;;4.32;;
37843;SDS011;63793;57.632;18.292;2023-03-13T10:13:37;5.85;;;4.55;;
37843;SDS011;63793;57.632;18.292;2023-03-13T10:16:26;5.40;;;4.65;;
37843;SDS011;63793;57.632;18.292;2023-03-13T10:19:00;7.97;;;6.03;;
37843;SDS011;63793;57.632;18.292;2023-03-13T10:21:37;5.53;;;5.03;;
37843;SDS011;63793;57.632;18.292;2023-03-13T10:24:10;5.25;;;4.63;;
37843;SDS011;63793;57.632;18.292;2023-03-13T10:26:52;5.55;;;4.70;;
37843;SDS011;63793;57.632;18.292;2023-03-13T10:29:22;4.93;;;4.47;;
37843;SDS011;63793;57.632;18.292;2023-03-13T10:31:57;6.65;;;4.40;;
37843;SDS011;63793;57.632;18.292;2023-03-13T10:34:27;3.95;;;3.55;;
37843;SDS011;63793;57.632;18.292;2023-03-13T10:37:13;5.40;;;4.03;;
37843;SDS011;63793;57.632;18.292;2023-03-13T10:39:41;6.18;;;3.60;;
37843;SDS011;63793;57.632;18.292;2023-03-13T10:42:09;4.50;;;3.30;;
37843;SDS011;63793;57.632;18.292;2023-03-13T10:44:43;4.28;;;3.58;;
37843;SDS011;63793;57.632;18.292;2023-03-13T10:47:11;4.53;;;3.03;;
37843;SDS011;63793;57.632;18.292;2023-03-13T10:49:47;4.55;;;3.42;;
37843;SDS011;63793;57.632;18.292;2023-03-13T10:55:12;4.68;;;3.13;;
37843;SDS011;63793;57.632;18.292;2023-03-13T10:57:50;3.28;;;2.90;;
37843;SDS011;63793;57.632;18.292;2023-03-13T11:00:35;3.85;;;2.95;;
37843;SDS011;63793;57.632;18.292;2023-03-13T11:03:05;2.83;;;2.30;;
37843;SDS011;63793;57.632;18.292;2023-03-13T11:05:43;4.30;;;3.42;;
37843;SDS011;63793;57.632;18.292;2023-03-13T11:08:21;4.18;;;3.20;;
37843;SDS011;63793;57.632;18.292;2023-03-13T11:10:53;4.25;;;3.38;;
37843;SDS011;63793;57.632;18.292;2023-03-13T11:13:35;3.85;;;2.90;;
37843;SDS011;63793;57.632;18.292;2023-03-13T11:16:19;3.97;;;3.47;;
37843;SDS011;63793;57.632;18.292;2023-03-13T11:18:56;3.33;;;3.03;;
37843;SDS011;63793;57.632;18.292;2023-03-13T11:24:35;3.92;;;3.53;;
37843;SDS011;63793;57.632;18.292;2023-03-13T11:27:09;4.25;;;3.28;;
37843;SDS011;63793;57.632;18.292;2023-03-13T11:29:52;5.00;;;3.78;;
37843;SDS011;63793;57.632;18.292;2023-03-13T11:35:20;4.53;;;3.35;;
37843;SDS011;63793;57.632;18.292;2023-03-13T11:38:02;3.88;;;2.42;;
37843;SDS011;63793;57.632;18.292;2023-03-13T11:43:21;6.07;;;4.03;;
37843;SDS011;63793;57.632;18.292;2023-03-13T11:46:14;6.28;;;4.15;;
37843;SDS011;63793;57.632;18.292;2023-03-13T11:51:55;5.63;;;4.40;;
37843;SDS011;63793;57.632;18.292;2023-03-13T12:02:49;6.97;;;4.25;;
37843;SDS011;63793;57.632;18.292;2023-03-13T12:05:24;6.70;;;4.03;;
37843;SDS011;63793;57.632;18.292;2023-03-13T12:08:15;6.23;;;4.40;;
37843;SDS011;63793;57.632;18.292;2023-03-13T12:11:09;7.10;;;5.30;;
37843;SDS011;63793;57.632;18.292;2023-03-13T12:13:58;6.85;;;4.25;;
37843;SDS011;63793;57.632;18.292;2023-03-13T12:16:42;8.02;;;4.75;;
37843;SDS011;63793;57.632;18.292;2023-03-13T12:19:12;6.55;;;4.68;;
37843;SDS011;63793;57.632;18.292;2023-03-13T12:21:47;9.15;;;5.22;;
37843;SDS011;63793;57.632;18.292;2023-03-13T12:24:22;5.82;;;4.32;;
37843;SDS011;63793;57.632;18.292;2023-03-13T12:27:03;6.10;;;4.15;;
37843;SDS011;63793;57.632;18.292;2023-03-13T12:29:57;7.82;;;5.10;;
37843;SDS011;63793;57.632;18.292;2023-03-13T12:32:39;6.20;;;5.07;;
37843;SDS011;63793;57.632;18.292;2023-03-13T12:35:25;7.43;;;5.03;;
37843;SDS011;63793;57.632;18.292;2023-03-13T12:38:12;9.57;;;4.88;;
37843;SDS011;63793;57.632;18.292;2023-03-13T12:40:51;6.32;;;4.88;;
37843;SDS011;63793;57.632;18.292;2023-03-13T12:43:42;8.48;;;5.03;;
37843;SDS011;63793;57.632;18.292;2023-03-13T12:46:36;5.85;;;4.63;;
37843;SDS011;63793;57.632;18.292;2023-03-13T12:55:00;8.10;;;4.95;;
37843;SDS011;63793;57.632;18.292;2023-03-13T13:00:21;9.40;;;6.05;;
37843;SDS011;63793;57.632;18.292;2023-03-13T13:06:05;4.73;;;4.07;;
37843;SDS011;63793;57.632;18.292;2023-03-13T13:16:51;6.00;;;5.05;;
37843;SDS011;63793;57.632;18.292;2023-03-13T13:35:23;8.95;;;3.78;;
37843;SDS011;63793;57.632;18.292;2023-03-13T13:37:50;4.13;;;3.25;;
37843;SDS011;63793;57.632;18.292;2023-03-13T13:40:19;4.43;;;3.10;;
37843;SDS011;63793;57.632;18.292;2023-03-13T13:47:41;5.20;;;2.92;;
37843;SDS011;63793;57.632;18.292;2023-03-13T13:52:47;3.88;;;2.30;;
37843;SDS011;63793;57.632;18.292;2023-03-13T14:00:59;3.85;;;2.70;;
37843;SDS011;63793;57.632;18.292;2023-03-13T14:03:31;5.90;;;3.05;;
37843;SDS011;63793;57.632;18.292;2023-03-13T14:08:36;4.28;;;3.22;;
37843;SDS011;63793;57.632;18.292;2023-03-13T14:13:39;4.97;;;3.08;;
37843;SDS011;63793;57.632;18.292;2023-03-13T14:16:19;4.53;;;2.90;;
37843;SDS011;63793;57.632;18.292;2023-03-13T14:18:50;4.55;;;3.45;;
37843;SDS011;63793;57.632;18.292;2023-03-13T14:21:24;4.03;;;3.03;;
37843;SDS011;63793;57.632;18.292;2023-03-13T14:23:52;5.18;;;2.65;;
37843;SDS011;63793;57.632;18.292;2023-03-13T14:26:21;3.47;;;2.58;;
37843;SDS011;63793;57.632;18.292;2023-03-13T14:28:49;3.33;;;2.65;;
37843;SDS011;63793;57.632;18.292;2023-03-13T14:31:21;3.45;;;2.28;;
37843;SDS011;63793;57.632;18.292;2023-03-13T14:33:57;3.63;;;2.90;;
37843;SDS011;63793;57.632;18.292;2023-03-13T14:36:29;3.30;;;2.35;;
37843;SDS011;63793;57.632;18.292;2023-03-13T14:39:15;5.25;;;3.53;;
37843;SDS011;63793;57.632;18.292;2023-03-13T14:42:05;4.72;;;3.20;;
37843;SDS011;63793;57.632;18.292;2023-03-13T14:44:37;3.50;;;2.60;;
37843;SDS011;63793;57.632;18.292;2023-03-13T14:47:06;3.40;;;3.10;;
37843;SDS011;63793;57.632;18.292;2023-03-13T14:49:39;3.28;;;2.55;;
37843;SDS011;63793;57.632;18.292;2023-03-13T14:52:23;2.53;;;2.13;;
37843;SDS011;63793;57.632;18.292;2023-03-13T14:57:22;3.15;;;2.10;;
37843;SDS011;63793;57.632;18.292;2023-03-13T14:59:53;3.40;;;2.53;;
37843;SDS011;63793;57.632;18.292;2023-03-13T15:02:40;3.15;;;2.22;;
37843;SDS011;63793;57.632;18.292;2023-03-13T15:05:28;2.55;;;2.03;;
37843;SDS011;63793;57.632;18.292;2023-03-13T15:07:58;3.60;;;2.30;;
37843;SDS011;63793;57.632;18.292;2023-03-13T15:10:35;4.13;;;2.20;;
37843;SDS011;63793;57.632;18.292;2023-03-13T15:15:51;3.35;;;2.20;;
37843;SDS011;63793;57.632;18.292;2023-03-13T15:23:24;3.20;;;2.67;;
37843;SDS011;63793;57.632;18.292;2023-03-13T15:25:51;4.30;;;3.78;;
37843;SDS011;63793;57.632;18.292;2023-03-13T15:28:19;5.70;;;3.53;;
37843;SDS011;63793;57.632;18.292;2023-03-13T15:30:49;5.15;;;3.63;;
37843;SDS011;63793;57.632;18.292;2023-03-13T15:33:18;5.72;;;4.00;;
37843;SDS011;63793;57.632;18.292;2023-03-13T15:35:47;4.70;;;4.03;;
37843;SDS011;63793;57.632;18.292;2023-03-13T15:38:16;11.98;;;5.20;;
37843;SDS011;63793;57.632;18.292;2023-03-13T15:40:45;5.90;;;5.20;;
37843;SDS011;63793;57.632;18.292;2023-03-13T15:43:12;9.02;;;5.38;;
37843;SDS011;63793;57.632;18.292;2023-03-13T15:45:40;7.07;;;5.00;;
37843;SDS011;63793;57.632;18.292;2023-03-13T15:48:15;11.93;;;5.65;;
37843;SDS011;63793;57.632;18.292;2023-03-13T15:50:42;7.20;;;5.07;;
37843;SDS011;63793;57.632;18.292;2023-03-13T15:53:23;8.52;;;5.90;;
37843;SDS011;63793;57.632;18.292;2023-03-13T15:55:53;10.20;;;5.90;;
37843;SDS011;63793;57.632;18.292;2023-03-13T15:58:21;10.93;;;4.95;;
37843;SDS011;63793;57.632;18.292;2023-03-13T16:00:48;6.18;;;3.95;;
37843;SDS011;63793;57.632;18.292;2023-03-13T16:03:16;7.35;;;5.07;;
37843;SDS011;63793;57.632;18.292;2023-03-13T16:05:45;11.80;;;6.43;;
37843;SDS011;63793;57.632;18.292;2023-03-13T16:08:14;8.45;;;4.72;;
37843;SDS011;63793;57.632;18.292;2023-03-13T16:10:59;13.75;;;6.00;;
37843;SDS011;63793;57.632;18.292;2023-03-13T16:13:26;9.25;;;5.32;;
37843;SDS011;63793;57.632;18.292;2023-03-13T16:15:53;11.32;;;5.82;;
37843;SDS011;63793;57.632;18.292;2023-03-13T16:18:21;8.02;;;5.88;;
37843;SDS011;63793;57.632;18.292;2023-03-13T16:20:49;5.95;;;5.35;;
37843;SDS011;63793;57.632;18.292;2023-03-13T16:23:17;6.28;;;4.32;;
37843;SDS011;63793;57.632;18.292;2023-03-13T16:25:44;9.80;;;5.30;;
37843;SDS011;63793;57.632;18.292;2023-03-13T16:28:12;10.13;;;5.97;;
37843;SDS011;63793;57.632;18.292;2023-03-13T16:30:40;6.43;;;4.90;;
37843;SDS011;63793;57.632;18.292;2023-03-13T16:33:12;7.13;;;5.80;;
37843;SDS011;63793;57.632;18.292;2023-03-13T16:35:39;9.02;;;5.55;;
37843;SDS011;63793;57.632;18.292;2023-03-13T16:38:08;14.68;;;10.43;;
37843;SDS011;63793;57.632;18.292;2023-03-13T16:40:36;7.38;;;5.47;;
37843;SDS011;63793;57.632;18.292;2023-03-13T16:43:02;10.27;;;8.13;;
37843;SDS011;63793;57.632;18.292;2023-03-13T16:45:29;18.52;;;7.35;;
37843;SDS011;63793;57.632;18.292;2023-03-13T16:47:56;12.05;;;6.97;;
37843;SDS011;63793;57.632;18.292;2023-03-13T16:50:36;14.57;;;7.57;;
37843;SDS011;63793;57.632;18.292;2023-03-13T16:53:03;9.70;;;6.72;;
37843;SDS011;63793;57.632;18.292;2023-03-13T16:55:30;12.95;;;9.30;;
37843;SDS011;63793;57.632;18.292;2023-03-13T16:58:02;11.85;;;8.82;;
37843;SDS011;63793;57.632;18.292;2023-03-13T17:00:30;11.68;;;7.88;;
37843;SDS011;63793;57.632;18.292;2023-03-13T17:02:57;8.90;;;6.95;;
37843;SDS011;63793;57.632;18.292;2023-03-13T17:05:25;10.55;;;8.25;;